Time;durP1;ratioP1;P1;durP2;ratioP2;P2;SDS_P1;SDS_P2;PMS_P1;PMS_P2;Temp;Humidity;BMP_temperature;BMP_pressure;BME280_temperature;BME280_humidity;BME280_pressure;Samples;Min_cycle;Max_cycle;Signal;HPM_P1;HPM_P2
2021/11/09 00:01:34;;;;;;;6.03;3.90;;;3.40;99.90;;;;;;5015887;28;20805;-67
2021/11/09 00:04:04;;;;;;;4.43;3.63;;;3.50;99.90;;;;;;5032892;28;20166;-68
2021/11/09 00:06:33;;;;;;;12.00;4.40;;;3.60;99.90;;;;;;5032144;28;20712;-68
2021/11/09 00:09:08;;;;;;;8.15;3.88;;;3.60;99.90;;;;;;5033173;28;20190;-68
2021/11/09 00:11:33;;;;;;;6.18;5.13;;;3.50;99.90;;;;;;5032721;28;20181;-68
2021/11/09 00:14:01;;;;;;;6.83;4.30;;;3.40;99.90;;;;;;5046166;28;20184;-68
2021/11/09 00:16:27;;;;;;;3.83;3.55;;;3.30;99.90;;;;;;5035354;28;20457;-69
2021/11/09 00:18:53;;;;;;;3.53;3.28;;;3.30;99.90;;;;;;5053050;28;20193;-68
2021/11/09 00:21:20;;;;;;;4.60;4.20;;;3.20;99.90;;;;;;5038030;28;20727;-68
2021/11/09 00:23:46;;;;;;;2.92;2.67;;;3.20;99.90;;;;;;5032865;28;20180;-68
2021/11/09 00:26:13;;;;;;;6.72;4.93;;;3.10;99.90;;;;;;5033192;28;20166;-67
2021/11/09 00:28:39;;;;;;;5.38;3.15;;;3.10;99.90;;;;;;5032939;28;20189;-68
2021/11/09 00:31:05;;;;;;;7.17;4.10;;;3.10;99.90;;;;;;5032509;28;20547;-67
2021/11/09 00:33:30;;;;;;;5.53;4.90;;;3.10;99.90;;;;;;5033022;28;20769;-68
2021/11/09 00:35:56;;;;;;;7.27;5.77;;;3.10;99.90;;;;;;5033123;28;20261;-68
2021/11/09 00:38:22;;;;;;;7.10;5.13;;;3.00;99.90;;;;;;5032771;28;20269;-67
2021/11/09 00:40:48;;;;;;;8.35;3.80;;;3.00;99.90;;;;;;5032601;28;20664;-69
2021/11/09 00:43:16;;;;;;;5.70;3.78;;;2.90;99.90;;;;;;5032428;28;20709;-68
2021/11/09 00:45:42;;;;;;;4.97;4.53;;;2.90;99.90;;;;;;5032349;28;20560;-68
2021/11/09 00:48:08;;;;;;;4.85;3.40;;;2.90;99.90;;;;;;5032683;28;20194;-68
2021/11/09 00:50:36;;;;;;;4.90;3.97;;;2.90;99.90;;;;;;5032628;28;20170;-68
2021/11/09 00:53:03;;;;;;;7.10;5.05;;;3.00;99.90;;;;;;5033258;28;20419;-67
2021/11/09 00:55:29;;;;;;;4.80;3.70;;;3.00;99.90;;;;;;5033024;28;20173;-68
2021/11/09 00:57:54;;;;;;;5.37;4.33;;;3.00;99.90;;;;;;5035905;28;20658;-67
2021/11/09 01:00:24;;;;;;;12.77;5.60;;;3.00;99.90;;;;;;5036289;28;20249;-69
2021/11/09 01:02:52;;;;;;;5.28;4.80;;;3.10;99.90;;;;;;5036786;28;20456;-68
2021/11/09 01:05:23;;;;;;;4.85;3.97;;;3.10;99.90;;;;;;5036855;28;20158;-68
2021/11/09 01:07:56;;;;;;;5.30;4.82;;;3.20;99.90;;;;;;5036325;28;20587;-68
2021/11/09 01:10:24;;;;;;;6.85;4.10;;;3.20;99.90;;;;;;5035884;28;20181;-68
2021/11/09 01:12:50;;;;;;;3.80;3.47;;;3.20;99.90;;;;;;5036476;28;20181;-68
2021/11/09 01:15:16;;;;;;;5.23;4.73;;;3.30;99.90;;;;;;5036433;28;20189;-68
2021/11/09 01:17:42;;;;;;;10.45;4.82;;;3.40;99.90;;;;;;5035687;28;20425;-69
2021/11/09 01:20:10;;;;;;;3.93;3.57;;;3.40;99.90;;;;;;5036177;28;20189;-68
2021/11/09 01:22:37;;;;;;;6.63;5.60;;;3.40;99.90;;;;;;5036357;28;20360;-68
2021/11/09 01:25:04;;;;;;;4.57;4.17;;;3.40;99.90;;;;;;5036084;28;20270;-68
2021/11/09 01:27:31;;;;;;;3.47;3.20;;;3.50;99.90;;;;;;5018061;28;20198;-69
2021/11/09 01:29:56;;;;;;;3.78;3.47;;;3.50;99.90;;;;;;5036193;28;20221;-68
2021/11/09 01:32:22;;;;;;;4.20;3.80;;;3.50;99.90;;;;;;5036413;28;20569;-68
2021/11/09 01:34:48;;;;;;;6.53;4.00;;;3.50;99.90;;;;;;5036121;28;20217;-68
2021/11/09 01:37:15;;;;;;;3.80;3.40;;;3.50;99.90;;;;;;5035817;28;20892;-68
2021/11/09 01:39:41;;;;;;;3.90;3.60;;;3.50;99.90;;;;;;5035246;28;20214;-69
2021/11/09 01:42:07;;;;;;;4.78;3.72;;;3.50;99.90;;;;;;5035874;28;20232;-68
2021/11/09 01:44:33;;;;;;;4.00;3.35;;;3.40;99.90;;;;;;5036044;28;20170;-69
2021/11/09 01:46:58;;;;;;;3.47;3.03;;;3.40;99.90;;;;;;5035743;28;20170;-69
2021/11/09 01:49:24;;;;;;;3.67;3.43;;;3.40;99.90;;;;;;5035416;28;20201;-68
2021/11/09 01:51:50;;;;;;;5.57;3.57;;;3.30;99.90;;;;;;5035852;28;20170;-68
2021/11/09 01:54:16;;;;;;;3.93;3.53;;;3.30;99.90;;;;;;5017990;28;20197;-69
2021/11/09 01:56:41;;;;;;;4.80;3.47;;;3.30;99.90;;;;;;5036032;28;20200;-69
2021/11/09 01:59:07;;;;;;;5.83;3.80;;;3.30;99.90;;;;;;5035573;28;20616;-67
2021/11/09 02:01:34;;;;;;;6.00;3.70;;;3.30;99.90;;;;;;5035570;28;20194;-68
2021/11/09 02:04:02;;;;;;;4.60;4.10;;;3.30;99.90;;;;;;5035467;28;20174;-69
2021/11/09 02:06:29;;;;;;;5.28;4.72;;;3.30;99.90;;;;;;5034367;28;20166;-68
2021/11/09 02:09:11;;;;;;;4.80;4.38;;;3.20;99.90;;;;;;5033572;28;20594;-68
2021/11/09 02:11:37;;;;;;;7.18;5.00;;;3.20;99.90;;;;;;5035555;28;20251;-67
2021/11/09 02:14:04;;;;;;;4.37;3.97;;;3.20;99.90;;;;;;5035594;28;20173;-68
2021/11/09 02:16:31;;;;;;;3.88;3.50;;;3.20;99.90;;;;;;5034511;28;20806;-67
2021/11/09 02:18:57;;;;;;;5.20;4.20;;;3.30;99.90;;;;;;5035048;28;20201;-67
2021/11/09 02:21:23;;;;;;;2.95;2.75;;;3.20;99.90;;;;;;5035444;28;20615;-68
2021/11/09 02:23:49;;;;;;;7.28;4.68;;;3.30;99.90;;;;;;5034931;28;20170;-67
2021/11/09 02:26:19;;;;;;;4.50;3.53;;;3.30;99.90;;;;;;5034912;28;20224;-67
2021/11/09 02:28:46;;;;;;;5.15;4.45;;;3.30;99.90;;;;;;5035094;28;20216;-69
2021/11/09 02:31:12;;;;;;;4.18;3.83;;;3.30;99.90;;;;;;5035196;28;20182;-68
2021/11/09 02:33:38;;;;;;;5.03;3.83;;;3.30;99.90;;;;;;5035317;28;20178;-68
2021/11/09 02:36:04;;;;;;;5.20;4.50;;;3.30;99.90;;;;;;5034943;28;20170;-68
2021/11/09 02:38:30;;;;;;;10.45;4.82;;;3.30;99.90;;;;;;5034303;28;20466;-68
2021/11/09 02:40:57;;;;;;;5.07;3.53;;;3.30;99.90;;;;;;5017222;28;20206;-68
2021/11/09 02:43:24;;;;;;;8.43;3.28;;;3.30;99.90;;;;;;5035078;28;20535;-69
2021/11/09 02:46:15;;;;;;;5.90;5.30;;;3.40;99.90;;;;;;5034560;28;20166;-68
2021/11/09 02:48:54;;;;;;;9.60;3.50;;;3.30;99.90;;;;;;5034313;28;20198;-69
2021/11/09 02:51:43;;;;;;;6.10;3.80;;;3.50;99.90;;;;;;5034908;28;20254;-67
2021/11/09 02:54:24;;;;;;;9.90;4.32;;;3.50;99.90;;;;;;5034345;28;20170;-68
2021/11/09 02:57:02;;;;;;;5.15;3.90;;;3.50;99.90;;;;;;5034014;28;20255;-68
2021/11/09 03:04:47;;;;;;;6.18;4.50;;;3.50;99.90;;;;;;5034707;28;20172;-68
2021/11/09 03:07:26;;;;;;;3.90;3.58;;;3.60;99.90;;;;;;5033865;28;20169;-68
2021/11/09 03:09:58;;;;;;;4.38;4.00;;;3.60;99.90;;;;;;5034203;28;20184;-68
2021/11/09 03:12:30;;;;;;;5.75;4.50;;;3.60;99.90;;;;;;5034537;28;20216;-68
2021/11/09 03:14:56;;;;;;;5.85;3.95;;;3.70;99.90;;;;;;5033891;28;20307;-68
2021/11/09 03:17:22;;;;;;;6.07;3.90;;;3.70;99.90;;;;;;5033690;28;20178;-68
2021/11/09 03:19:55;;;;;;;4.55;4.15;;;3.70;99.90;;;;;;5031971;28;20543;-69
2021/11/09 03:44:32;;;;;;;5.32;3.80;;;3.40;99.90;;;;;;5033912;28;20299;-69
2021/11/09 03:47:02;;;;;;;5.25;3.60;;;3.30;99.90;;;;;;5033372;28;20192;-68
2021/11/09 03:49:31;;;;;;;3.83;3.55;;;3.20;99.90;;;;;;5033628;28;20205;-68
2021/11/09 03:51:59;;;;;;;4.55;4.15;;;3.20;99.90;;;;;;5033522;28;20173;-68
2021/11/09 03:54:27;;;;;;;5.78;4.55;;;3.10;99.90;;;;;;5033606;28;20300;-69
2021/11/09 03:57:30;;;;;;;5.32;3.50;;;3.10;99.90;;;;;;5033406;28;20170;-69
2021/11/09 04:00:11;;;;;;;4.03;3.38;;;3.00;99.90;;;;;;5031126;28;20190;-68
2021/11/09 04:02:59;;;;;;;5.60;3.58;;;3.00;99.90;;;;;;5033559;28;20540;-68
2021/11/09 04:05:32;;;;;;;5.97;3.47;;;2.90;99.90;;;;;;5033343;28;20245;-68
2021/11/09 04:08:27;;;;;;;7.15;3.83;;;2.80;99.90;;;;;;5032747;28;20193;-68
2021/11/09 04:21:15;;;;;;;6.78;3.95;;;2.60;99.90;;;;;;5053330;28;20459;-68
2021/11/09 04:24:24;;;;;;;5.85;3.20;;;2.60;99.90;;;;;;5033721;28;20224;-67
2021/11/09 04:32:05;;;;;;;9.05;3.55;;;2.50;99.90;;;;;;5032308;28;20541;-68
2021/11/09 05:09:38;;;;;;;5.22;3.53;;;2.30;99.90;;;;;;5016594;28;20215;-69
2021/11/09 05:12:04;;;;;;;3.72;3.40;;;2.20;99.90;;;;;;5032992;28;20204;-68
2021/11/09 05:14:30;;;;;;;3.10;2.83;;;2.20;99.90;;;;;;5032656;28;20591;-67
2021/11/09 05:16:57;;;;;;;3.80;3.25;;;2.20;99.90;;;;;;5030787;28;20638;-68
2021/11/09 05:19:22;;;;;;;4.65;4.25;;;2.10;99.90;;;;;;5032499;28;20212;-68
2021/11/09 05:21:48;;;;;;;12.83;4.17;;;2.10;99.90;;;;;;5031304;28;20288;-68
2021/11/09 05:24:14;;;;;;;7.53;4.00;;;2.10;99.90;;;;;;5032328;28;20661;-67
2021/11/09 05:26:41;;;;;;;5.43;4.87;;;2.10;99.90;;;;;;5032413;28;20661;-68
2021/11/09 05:29:08;;;;;;;6.25;4.35;;;2.10;99.90;;;;;;5032352;28;20266;-69
2021/11/09 05:31:34;;;;;;;3.60;2.95;;;2.10;99.90;;;;;;5032434;28;20178;-69
2021/11/09 05:34:00;;;;;;;4.30;3.23;;;2.10;99.90;;;;;;5032345;28;20317;-69
2021/11/09 05:36:32;;;;;;;4.97;3.40;;;2.10;99.90;;;;;;5032309;28;20249;-67
2021/11/09 05:39:23;;;;;;;4.47;2.95;;;2.10;99.90;;;;;;5032201;28;20193;-67
2021/11/09 05:41:45;;;;;;;3.38;3.10;;;2.10;99.90;;;;;;5032093;28;20233;-69
2021/11/09 05:44:11;;;;;;;4.43;4.07;;;2.10;99.90;;;;;;5034205;28;20257;-67
2021/11/09 05:46:38;;;;;;;3.53;2.40;;;2.00;99.90;;;;;;5034380;28;20253;-67
2021/11/09 05:49:04;;;;;;;4.05;3.17;;;2.00;99.90;;;;;;5035132;28;20244;-69
2021/11/09 05:51:31;;;;;;;2.40;2.25;;;2.00;99.90;;;;;;5035360;28;20182;-68
2021/11/09 05:53:57;;;;;;;3.85;3.50;;;2.00;99.90;;;;;;5035757;28;20185;-69
2021/11/09 05:56:23;;;;;;;4.78;3.33;;;2.00;99.90;;;;;;5035709;28;20193;-69
2021/11/09 05:58:49;;;;;;;3.35;2.10;;;2.00;99.90;;;;;;5035748;28;20190;-68
2021/11/09 06:01:15;;;;;;;3.80;2.53;;;2.00;99.90;;;;;;5035139;28;20201;-68
2021/11/09 06:03:41;;;;;;;4.07;3.10;;;1.90;99.90;;;;;;5034460;28;20474;-67
2021/11/09 06:06:07;;;;;;;3.93;3.63;;;1.90;99.90;;;;;;5034403;28;20444;-69
2021/11/09 06:08:32;;;;;;;2.70;2.43;;;1.90;99.90;;;;;;5034212;28;20192;-70
2021/11/09 06:10:58;;;;;;;3.87;3.40;;;1.80;99.90;;;;;;5035501;28;20196;-70
2021/11/09 06:13:24;;;;;;;5.50;3.13;;;1.90;99.90;;;;;;5035803;28;20538;-68
2021/11/09 06:15:49;;;;;;;5.63;3.70;;;1.90;99.90;;;;;;5035339;28;20439;-69
2021/11/09 06:18:15;;;;;;;4.50;4.03;;;1.90;99.90;;;;;;5034793;28;20191;-68
2021/11/09 06:20:40;;;;;;;3.73;3.40;;;1.90;99.90;;;;;;5030429;28;20646;-68
2021/11/09 06:23:06;;;;;;;2.93;2.33;;;1.90;99.90;;;;;;5050089;28;20201;-69
2021/11/09 06:25:32;;;;;;;3.67;3.37;;;1.90;99.90;;;;;;5053729;28;20685;-69
2021/11/09 06:27:59;;;;;;;8.32;4.18;;;1.90;99.90;;;;;;5034246;28;20191;-68
2021/11/09 06:30:25;;;;;;;5.30;3.97;;;1.90;99.90;;;;;;5031544;28;20264;-68
2021/11/09 06:32:50;;;;;;;3.53;3.20;;;1.90;99.90;;;;;;5033806;28;20265;-67
2021/11/09 06:35:17;;;;;;;3.03;2.77;;;1.90;99.90;;;;;;5033408;28;20186;-68
2021/11/09 06:37:42;;;;;;;4.15;3.75;;;1.90;99.90;;;;;;5033236;28;20186;-69
2021/11/09 06:40:09;;;;;;;3.43;3.23;;;1.90;99.90;;;;;;5033673;28;20178;-67
2021/11/09 06:42:35;;;;;;;3.50;3.20;;;1.90;99.90;;;;;;5033268;28;20282;-70
2021/11/09 06:45:01;;;;;;;4.57;4.07;;;1.90;99.90;;;;;;5034887;28;20166;-68
2021/11/09 06:47:27;;;;;;;3.93;3.73;;;1.90;99.90;;;;;;5016350;28;20721;-63
2021/11/09 06:49:52;;;;;;;3.93;2.93;;;2.00;99.90;;;;;;5035160;28;20174;-63
2021/11/09 06:52:18;;;;;;;5.97;4.63;;;2.20;99.90;;;;;;5035036;28;20174;-67
2021/11/09 06:54:44;;;;;;;3.80;3.50;;;2.30;99.90;;;;;;5034054;28;20193;-66
2021/11/09 06:57:11;;;;;;;6.37;3.87;;;2.50;99.90;;;;;;5033918;28;20960;-65
2021/11/09 06:59:37;;;;;;;6.18;5.60;;;2.70;99.90;;;;;;5034424;28;20489;-64
2021/11/09 07:02:04;;;;;;;12.27;5.72;;;3.10;99.90;;;;;;5033928;28;20198;-65
2021/11/09 07:04:30;;;;;;;4.18;3.78;;;3.50;99.90;;;;;;5034466;28;20174;-65
2021/11/09 07:06:56;;;;;;;7.10;5.00;;;3.70;99.90;;;;;;5034231;28;20224;-64
2021/11/09 07:09:23;;;;;;;5.53;5.03;;;4.00;99.90;;;;;;5034416;28;20194;-64
2021/11/09 07:11:49;;;;;;;8.65;5.82;;;4.20;99.90;;;;;;5034392;28;20178;-64
2021/11/09 07:14:15;;;;;;;7.97;4.60;;;4.20;99.90;;;;;;5034121;28;20605;-65
2021/11/09 07:16:44;;;;;;;6.47;5.85;;;4.30;99.90;;;;;;5027017;28;20186;-65
2021/11/09 07:19:10;;;;;;;7.53;5.95;;;4.50;99.90;;;;;;5032761;28;20614;-64
2021/11/09 07:21:36;;;;;;;10.25;5.95;;;4.80;99.90;;;;;;5035930;28;20217;-64
2021/11/09 07:24:01;;;;;;;11.30;7.90;;;5.10;99.90;;;;;;5035482;28;20259;-65
2021/11/09 07:26:28;;;;;;;8.47;6.90;;;5.70;99.90;;;;;;5034941;28;20181;-64
2021/11/09 07:28:55;;;;;;;9.27;6.25;;;6.30;99.90;;;;;;5016495;28;20801;-65
2021/11/09 07:31:20;;;;;;;7.78;5.03;;;6.90;99.90;;;;;;5016910;28;20261;-64
2021/11/09 07:33:48;;;;;;;5.10;4.60;;;7.50;99.90;;;;;;5034022;28;20260;-66
2021/11/09 07:36:14;;;;;;;5.90;4.70;;;7.90;99.90;;;;;;5034584;28;20534;-66
2021/11/09 07:38:40;;;;;;;7.28;5.07;;;8.20;99.90;;;;;;5034004;28;20308;-65
2021/11/09 07:41:06;;;;;;;4.70;3.97;;;8.40;99.90;;;;;;5034357;28;22050;-64
2021/11/09 07:43:32;;;;;;;6.97;6.00;;;8.60;99.90;;;;;;5034212;28;20193;-65
2021/11/09 07:45:59;;;;;;;8.33;6.10;;;8.70;99.90;;;;;;5034329;28;20171;-65
2021/11/09 07:48:25;;;;;;;5.57;4.78;;;8.60;99.90;;;;;;5033410;28;20238;-66
2021/11/09 07:50:50;;;;;;;4.90;4.40;;;8.40;99.90;;;;;;5034089;28;20623;-65
2021/11/09 07:53:17;;;;;;;11.67;5.30;;;8.30;99.90;;;;;;5033864;28;20193;-65
2021/11/09 07:56:07;;;;;;;7.38;5.75;;;8.30;99.90;;;;;;5034036;28;20202;-66
2021/11/09 07:58:36;;;;;;;5.72;5.13;;;8.30;99.90;;;;;;5034853;28;20194;-64
2021/11/09 08:01:08;;;;;;;5.03;4.45;;;8.40;99.90;;;;;;5035476;28;20518;-65
2021/11/09 08:03:38;;;;;;;7.18;6.03;;;8.60;99.90;;;;;;5035749;28;20213;-65
2021/11/09 08:06:18;;;;;;;4.13;3.73;;;9.00;99.90;;;;;;5033307;28;20179;-64
2021/11/09 08:09:06;;;;;;;6.10;5.27;;;9.50;99.90;;;;;;5035461;28;20525;-66
2021/11/09 08:11:35;;;;;;;8.60;5.10;;;10.30;99.90;;;;;;5034347;28;20448;-65
2021/11/09 08:14:01;;;;;;;4.97;4.50;;;11.20;99.90;;;;;;5033818;28;20426;-65
2021/11/09 08:16:27;;;;;;;5.93;4.03;;;11.90;99.90;;;;;;5033376;28;20404;-65
2021/11/09 08:18:53;;;;;;;4.97;4.40;;;12.40;99.90;;;;;;5033321;28;20193;-66
2021/11/09 08:21:19;;;;;;;4.30;3.90;;;12.90;99.90;;;;;;5033383;28;20435;-66
2021/11/09 08:23:49;;;;;;;4.87;4.57;;;13.40;99.90;;;;;;5033375;28;20887;-65
2021/11/09 08:26:21;;;;;;;5.53;5.03;;;13.90;98.20;;;;;;5033023;28;20635;-66
2021/11/09 08:28:47;;;;;;;5.57;4.20;;;14.40;97.30;;;;;;5033251;28;20519;-66
2021/11/09 08:31:16;;;;;;;5.47;3.43;;;14.80;95.20;;;;;;5033270;28;20437;-66
2021/11/09 08:33:42;;;;;;;4.40;3.93;;;15.10;94.40;;;;;;5033226;28;20183;-66
2021/11/09 08:36:11;;;;;;;4.37;3.97;;;15.20;93.30;;;;;;5033165;28;20900;-66
2021/11/09 08:38:38;;;;;;;4.70;4.30;;;15.40;93.70;;;;;;5032492;28;20422;-66
2021/11/09 08:41:05;;;;;;;4.90;4.47;;;15.80;93.70;;;;;;5032347;28;20403;-67
2021/11/09 08:43:35;;;;;;;5.27;4.57;;;16.40;92.20;;;;;;5033133;28;20816;-66
2021/11/09 08:48:39;;;;;;;4.67;4.20;;;16.60;90.30;;;;;;5032703;28;20895;-66
2021/11/09 08:51:08;;;;;;;5.30;3.97;;;16.80;90.70;;;;;;5032972;28;20417;-66
2021/11/09 08:53:40;;;;;;;4.33;3.90;;;16.80;88.90;;;;;;5032720;28;20408;-66
2021/11/09 09:01:20;;;;;;;4.23;3.93;;;16.60;89.30;;;;;;5032976;28;20178;-67
2021/11/09 09:06:34;;;;;;;4.80;3.60;;;16.80;86.80;;;;;;5032604;28;20386;-66
2021/11/09 09:09:03;;;;;;;3.70;3.27;;;16.80;87.30;;;;;;5032209;28;20428;-66
2021/11/09 09:11:33;;;;;;;4.30;3.40;;;17.00;86.90;;;;;;5032571;28;20399;-65
2021/11/09 09:14:00;;;;;;;5.07;4.57;;;17.10;86.40;;;;;;5032906;28;20383;-66
2021/11/09 09:16:28;;;;;;;3.80;3.50;;;17.20;86.50;;;;;;5031883;28;20771;-66
2021/11/09 09:18:56;;;;;;;2.63;2.43;;;17.20;84.70;;;;;;5035778;28;20432;-65
2021/11/09 09:21:46;;;;;;;4.13;2.67;;;17.40;84.60;;;;;;5035927;28;20431;-65
2021/11/09 09:25:04;;;;;;;5.27;4.47;;;17.80;83.10;;;;;;5036329;28;20392;-66
2021/11/09 09:56:54;;;;;;;4.17;3.53;;;18.80;75.30;;;;;;5035678;28;20392;-66
2021/11/09 09:59:24;;;;;;;4.70;3.30;;;18.60;75.10;;;;;;5035692;28;20242;-66
2021/11/09 10:02:24;;;;;;;3.40;3.10;;;18.40;75.90;;;;;;5035431;28;20435;-66
2021/11/09 10:04:59;;;;;;;5.50;2.40;;;18.00;76.50;;;;;;5035789;28;20414;-65
2021/11/09 10:07:39;;;;;;;4.27;3.57;;;17.50;76.50;;;;;;5017222;28;20409;-65
2021/11/09 10:10:11;;;;;;;3.40;3.07;;;17.20;78.30;;;;;;5035482;28;20757;-66
2021/11/09 10:12:45;;;;;;;3.60;3.30;;;16.70;78.80;;;;;;5035338;28;20443;-65
2021/11/09 10:15:18;;;;;;;2.07;1.97;;;16.30;80.20;;;;;;5035572;28;20465;-66
2021/11/09 10:17:48;;;;;;;3.10;2.90;;;16.30;81.30;;;;;;5035027;28;20416;-65
2021/11/09 10:20:19;;;;;;;2.07;1.97;;;16.50;81.30;;;;;;5035126;28;20729;-65
2021/11/09 10:22:49;;;;;;;2.03;1.83;;;16.60;79.80;;;;;;5035369;28;20492;-65
2021/11/09 10:25:17;;;;;;;7.00;1.90;;;16.60;78.90;;;;;;5035721;28;20493;-65
2021/11/09 10:27:46;;;;;;;2.00;1.80;;;16.60;78.60;;;;;;5034715;28;20442;-65
2021/11/09 10:30:18;;;;;;;2.07;1.87;;;16.40;77.30;;;;;;5004281;28;20433;-66
2021/11/09 10:32:45;;;;;;;7.23;2.33;;;16.10;78.40;;;;;;5031400;28;20764;-65
2021/11/09 10:35:13;;;;;;;1.70;1.60;;;15.80;79.20;;;;;;5035089;28;20466;-65
2021/11/09 10:37:46;;;;;;;2.23;2.10;;;15.50;80.40;;;;;;5016682;28;20498;-66
2021/11/09 10:40:19;;;;;;;1.77;1.67;;;15.30;81.30;;;;;;5035022;28;20435;-66
2021/11/09 10:42:49;;;;;;;1.73;1.60;;;15.10;81.40;;;;;;5034595;28;21037;-65
2021/11/09 10:45:19;;;;;;;2.63;1.53;;;14.80;81.60;;;;;;5034783;28;20477;-65
2021/11/09 10:47:48;;;;;;;2.33;2.13;;;14.50;81.90;;;;;;5034503;28;20410;-64
2021/11/09 10:50:20;;;;;;;1.80;1.70;;;14.30;82.90;;;;;;5034575;28;20416;-66
2021/11/09 10:52:48;;;;;;;3.13;1.57;;;14.20;83.90;;;;;;5034802;28;20435;-65
2021/11/09 10:55:37;;;;;;;2.00;1.57;;;14.10;84.20;;;;;;5034699;28;20470;-65
2021/11/09 11:05:48;;;;;;;2.30;1.40;;;12.20;87.80;;;;;;5034758;28;20385;-64
2021/11/09 11:08:14;;;;;;;2.80;1.97;;;11.90;90.10;;;;;;5033886;28;20433;-65
2021/11/09 11:10:40;;;;;;;1.97;1.77;;;11.60;90.60;;;;;;5033807;28;20437;-66
2021/11/09 11:13:35;;;;;;;2.23;1.50;;;11.40;90.90;;;;;;5034395;28;20184;-64
2021/11/09 11:16:01;;;;;;;2.90;1.77;;;11.30;91.20;;;;;;5021045;28;20659;-65
2021/11/09 11:18:33;;;;;;;2.78;2.05;;;11.20;91.10;;;;;;5033780;28;20221;-66
2021/11/09 11:20:59;;;;;;;3.90;1.50;;;11.10;91.30;;;;;;5033896;28;20188;-65
2021/11/09 11:23:25;;;;;;;8.70;1.60;;;11.00;91.80;;;;;;5034295;28;20171;-64
2021/11/09 11:25:52;;;;;;;1.55;1.20;;;10.90;92.00;;;;;;5034148;28;20426;-65
2021/11/09 11:28:19;;;;;;;2.50;1.83;;;10.90;92.40;;;;;;5033798;28;20190;-65
2021/11/09 11:30:45;;;;;;;1.77;1.67;;;10.90;92.20;;;;;;5034397;28;20319;-65
2021/11/09 11:33:11;;;;;;;2.28;1.17;;;10.70;91.90;;;;;;5034151;28;20538;-64
2021/11/09 11:35:37;;;;;;;1.17;1.07;;;10.80;91.90;;;;;;5033969;28;20173;-65
2021/11/09 11:38:03;;;;;;;1.40;1.30;;;10.70;91.90;;;;;;5033675;28;20610;-65
2021/11/09 11:40:30;;;;;;;2.03;1.45;;;10.80;92.00;;;;;;5034338;28;20428;-66
2021/11/09 11:42:56;;;;;;;4.57;1.80;;;10.80;92.20;;;;;;5033762;28;20201;-66
2021/11/09 11:45:22;;;;;;;2.30;1.00;;;10.80;92.00;;;;;;5034019;28;20170;-66
2021/11/09 11:48:08;;;;;;;1.77;1.60;;;10.80;91.70;;;;;;5033119;28;20264;-65
2021/11/09 11:50:44;;;;;;;1.83;1.10;;;10.80;92.10;;;;;;5033891;28;20177;-64
2021/11/09 11:53:10;;;;;;;1.98;1.45;;;10.70;91.90;;;;;;5033520;28;20177;-64
2021/11/09 11:55:36;;;;;;;1.75;1.60;;;10.80;92.10;;;;;;5033556;28;20283;-67
2021/11/09 11:58:11;;;;;;;2.05;1.23;;;10.70;91.90;;;;;;5033127;28;20202;-65
2021/11/09 12:00:45;;;;;;;1.23;1.17;;;10.70;92.10;;;;;;5016323;28;20177;-65
2021/11/09 12:03:23;;;;;;;1.90;1.80;;;10.80;91.90;;;;;;5033466;28;20240;-65
2021/11/09 12:05:50;;;;;;;2.55;2.05;;;10.80;92.10;;;;;;5033642;28;20525;-64
2021/11/09 12:08:33;;;;;;;1.45;1.35;;;10.80;92.00;;;;;;5015539;28;20194;-65
2021/11/09 12:10:59;;;;;;;1.50;1.42;;;10.90;92.10;;;;;;5013911;28;20174;-65
2021/11/09 12:13:24;;;;;;;4.30;1.25;;;10.90;91.80;;;;;;5013690;28;20224;-65
2021/11/09 12:16:02;;;;;;;2.50;1.30;;;10.90;91.90;;;;;;5013271;28;20269;-64
2021/11/09 12:18:28;;;;;;;1.17;0.88;;;11.00;92.10;;;;;;5012785;28;20686;-65
2021/11/09 12:20:57;;;;;;;1.10;1.00;;;11.00;92.00;;;;;;5013551;28;20178;-65
2021/11/09 12:23:23;;;;;;;1.40;1.30;;;11.10;91.90;;;;;;5015547;28;20714;-63
2021/11/09 12:25:49;;;;;;;6.87;2.43;;;11.10;91.80;;;;;;5033167;28;20240;-63
2021/11/09 12:28:16;;;;;;;3.28;1.60;;;11.10;91.90;;;;;;5032790;28;20197;-64
2021/11/09 12:30:44;;;;;;;1.95;1.10;;;11.20;91.70;;;;;;5015445;28;20312;-64
2021/11/09 12:33:19;;;;;;;2.45;2.08;;;11.20;91.40;;;;;;5033049;28;20185;-64
2021/11/09 12:35:49;;;;;;;1.65;1.35;;;11.20;91.70;;;;;;5033221;28;20173;-64
2021/11/09 12:38:21;;;;;;;1.45;1.25;;;11.20;91.60;;;;;;5032065;28;20193;-61
2021/11/09 12:40:50;;;;;;;1.25;1.20;;;11.20;91.80;;;;;;5032801;28;20262;-63
2021/11/09 12:43:31;;;;;;;1.65;1.50;;;11.30;91.70;;;;;;5032861;28;20206;-64
2021/11/09 12:46:21;;;;;;;0.95;0.95;;;11.30;91.20;;;;;;5032649;28;20182;-61
2021/11/09 12:48:53;;;;;;;1.50;1.40;;;11.30;91.10;;;;;;5032242;28;20182;-63
2021/11/09 12:51:26;;;;;;;5.03;1.42;;;11.30;91.40;;;;;;5032639;28;20224;-63
2021/11/09 12:53:53;;;;;;;1.63;1.50;;;11.30;91.40;;;;;;5035792;28;20177;-62
2021/11/09 12:56:23;;;;;;;1.40;1.30;;;11.20;91.80;;;;;;5036416;28;20185;-62
2021/11/09 12:59:00;;;;;;;2.15;1.58;;;11.30;91.40;;;;;;5036669;28;20205;-64
2021/11/09 13:09:18;;;;;;;5.63;1.20;;;11.30;91.60;;;;;;5036493;28;20201;-64
2021/11/09 13:11:48;;;;;;;1.25;1.20;;;11.30;91.60;;;;;;5036839;28;20252;-62
2021/11/09 13:14:14;;;;;;;4.10;1.48;;;11.20;91.60;;;;;;5036899;28;20178;-62
2021/11/09 13:16:43;;;;;;;1.50;1.40;;;11.20;91.40;;;;;;5035922;28;20658;-62
2021/11/09 13:19:10;;;;;;;3.33;1.05;;;11.20;91.50;;;;;;5036729;28;20225;-63
2021/11/09 13:21:38;;;;;;;1.27;1.17;;;11.20;91.50;;;;;;5036109;28;20194;-63
2021/11/09 13:24:05;;;;;;;1.67;1.58;;;11.20;91.70;;;;;;5035841;28;20413;-63
2021/11/09 13:26:31;;;;;;;3.42;3.22;;;11.30;91.50;;;;;;5036483;28;20538;-63
2021/11/09 13:29:06;;;;;;;1.48;1.38;;;11.30;91.30;;;;;;5036302;28;20558;-63
2021/11/09 13:31:34;;;;;;;6.65;2.35;;;11.30;91.10;;;;;;5036598;28;20569;-62
2021/11/09 13:34:02;;;;;;;2.20;2.10;;;11.30;91.10;;;;;;5035990;28;20197;-62
2021/11/09 13:36:27;;;;;;;1.58;1.20;;;11.30;91.00;;;;;;5034024;28;20217;-62
2021/11/09 13:38:55;;;;;;;4.00;1.37;;;11.20;91.10;;;;;;5035956;28;20222;-63
2021/11/09 13:41:29;;;;;;;0.93;0.93;;;11.20;91.30;;;;;;5036469;28;20527;-62
2021/11/09 13:44:25;;;;;;;1.98;1.55;;;11.20;91.40;;;;;;5036466;28;20169;-63
2021/11/09 13:46:51;;;;;;;0.95;0.95;;;11.30;91.60;;;;;;5022888;28;20609;-62
2021/11/09 13:49:20;;;;;;;1.10;0.90;;;11.30;91.40;;;;;;5035927;28;20218;-62
2021/11/09 13:51:50;;;;;;;2.85;1.20;;;11.30;91.50;;;;;;5035537;28;20185;-62
2021/11/09 13:54:19;;;;;;;2.15;1.40;;;11.30;91.40;;;;;;5035772;28;20198;-63
2021/11/09 13:56:47;;;;;;;1.70;1.25;;;11.30;91.50;;;;;;5035450;28;20181;-62
2021/11/09 13:59:21;;;;;;;3.95;1.55;;;11.20;91.30;;;;;;5033682;28;20197;-62
2021/11/09 14:17:51;;;;;;;1.08;0.98;;;11.10;91.30;;;;;;5035057;28;20555;-63
2021/11/09 14:20:21;;;;;;;1.20;1.20;;;11.10;91.30;;;;;;5035165;28;20190;-63
2021/11/09 14:23:02;;;;;;;2.85;1.42;;;11.10;91.40;;;;;;5035567;28;20517;-62
2021/11/09 14:25:29;;;;;;;1.10;1.10;;;11.10;91.40;;;;;;5035918;28;20253;-62
2021/11/09 14:27:54;;;;;;;1.10;1.10;;;11.10;91.20;;;;;;5034536;28;20222;-62
2021/11/09 14:30:23;;;;;;;1.63;1.40;;;11.00;91.30;;;;;;5035226;28;20216;-62
2021/11/09 14:32:49;;;;;;;1.80;1.23;;;11.00;91.40;;;;;;5035482;28;20265;-62
2021/11/09 14:38:00;;;;;;;1.40;1.05;;;11.00;91.50;;;;;;5034820;28;20244;-62
2021/11/09 14:40:31;;;;;;;2.80;1.40;;;10.90;91.60;;;;;;5035124;28;20541;-61
2021/11/09 14:43:07;;;;;;;1.88;1.77;;;10.90;91.70;;;;;;5034485;28;20201;-62
2021/11/09 14:46:00;;;;;;;1.67;1.55;;;10.90;91.60;;;;;;5034615;28;20181;-63
2021/11/09 14:53:45;;;;;;;1.17;1.10;;;10.70;91.40;;;;;;5035091;28;20170;-62
2021/11/09 14:56:14;;;;;;;1.55;1.20;;;10.70;91.70;;;;;;5034949;28;20166;-62
2021/11/09 14:58:50;;;;;;;5.68;1.50;;;10.70;91.80;;;;;;5034353;28;20641;-61
2021/11/09 15:01:40;;;;;;;1.00;1.00;;;10.60;91.50;;;;;;5034393;28;20196;-61
2021/11/09 15:04:19;;;;;;;2.33;2.13;;;10.60;91.70;;;;;;5034831;28;20189;-63
2021/11/09 15:13:09;;;;;;;2.15;1.23;;;10.50;92.10;;;;;;5034672;28;20180;-63
2021/11/09 15:26:16;;;;;;;1.52;1.33;;;10.20;92.60;;;;;;5034552;28;20649;-62
2021/11/09 15:31:27;;;;;;;1.17;1.17;;;10.00;92.60;;;;;;5034141;28;20169;-61
2021/11/09 15:39:30;;;;;;;2.08;1.88;;;9.90;93.70;;;;;;5034179;28;20541;-62
2021/11/09 15:41:58;;;;;;;1.85;1.73;;;9.80;93.90;;;;;;5033188;28;20197;-62
2021/11/09 15:44:24;;;;;;;1.63;1.52;;;9.70;94.10;;;;;;5033665;28;20174;-62
2021/11/09 15:46:54;;;;;;;1.20;1.13;;;9.60;94.30;;;;;;5033309;28;20688;-63
2021/11/09 15:49:24;;;;;;;1.35;1.25;;;9.50;94.70;;;;;;5033799;28;20293;-62
2021/11/09 15:51:50;;;;;;;2.08;1.80;;;9.40;95.00;;;;;;5033683;28;20511;-62
2021/11/09 15:54:16;;;;;;;2.80;2.60;;;9.30;95.20;;;;;;5033985;28;20197;-63
2021/11/09 15:56:44;;;;;;;2.90;1.80;;;9.30;95.40;;;;;;5033160;28;20845;-63
2021/11/09 15:59:10;;;;;;;1.92;1.27;;;9.30;95.60;;;;;;5033403;28;20198;-64
2021/11/09 16:01:38;;;;;;;2.28;1.98;;;9.20;95.70;;;;;;5033614;28;20217;-62
2021/11/09 16:04:04;;;;;;;1.65;1.55;;;9.10;96.10;;;;;;5033550;28;20181;-63
2021/11/09 16:06:31;;;;;;;3.72;1.58;;;9.10;96.10;;;;;;5033149;28;20204;-62
2021/11/09 16:08:57;;;;;;;1.40;1.30;;;8.90;96.40;;;;;;5033503;28;20201;-63